Time;durP1;ratioP1;P1;durP2;ratioP2;P2;SDS_P1;SDS_P2;PMS_P1;PMS_P2;Temp;Humidity;BMP_temperature;BMP_pressure;BME280_temperature;BME280_humidity;BME280_pressure;Samples;Min_cycle;Max_cycle;Signal;HPM_P1;HPM_P2
2022/03/19 00:00:28;;;;;;;;;2.75;2.75;;;;;9.32;88.76;103183.34;5106949;27;46924;-85
2022/03/19 00:02:54;;;;;;;;;5.50;5.50;;;;;9.26;90.08;103174.59;5104627;27;45152;-86
2022/03/19 00:05:19;;;;;;;;;6.00;4.75;;;;;9.24;90.07;103180.88;5099962;27;44755;-86
2022/03/19 00:07:45;;;;;;;;;7.00;5.75;;;;;9.23;90.01;103171.16;5097360;27;44854;-85
2022/03/19 00:10:11;;;;;;;;;8.50;6.50;;;;;9.20;89.57;103171.22;5099217;27;45378;-84
2022/03/19 00:12:40;;;;;;;;;4.50;4.50;;;;;9.17;90.03;103173.94;5099181;27;45417;-85
2022/03/19 00:15:07;;;;;;;;;5.00;5.00;;;;;9.13;90.09;103170.47;5105363;27;45361;-86
2022/03/19 00:17:33;;;;;;;;;5.25;3.75;;;;;9.11;90.21;103171.44;5099535;27;45292;-85
2022/03/19 00:19:58;;;;;;;;;4.50;4.00;;;;;9.09;90.40;103181.19;5100091;27;45247;-86
2022/03/19 00:22:24;;;;;;;;;7.50;4.00;;;;;9.05;90.45;103176.88;5100786;27;44736;-85
2022/03/19 00:24:49;;;;;;;;;6.00;5.00;;;;;9.00;89.94;103184.91;5105329;27;45235;-86
2022/03/19 00:27:15;;;;;;;;;5.00;5.00;;;;;8.97;90.76;103177.88;5109718;27;44810;-85
2022/03/19 00:29:40;;;;;;;;;6.00;6.00;;;;;8.92;90.96;103166.50;5106271;27;46549;-85
2022/03/19 00:32:06;;;;;;;;;6.00;6.00;;;;;8.91;91.12;103172.72;5099598;27;45449;-86
2022/03/19 00:34:32;;;;;;;;;6.00;5.00;;;;;8.88;91.34;103164.81;5100012;27;45294;-84
2022/03/19 00:36:58;;;;;;;;;5.25;4.50;;;;;8.87;90.63;103172.81;5099974;27;45331;-85
2022/03/19 00:39:24;;;;;;;;;3.00;3.00;;;;;8.85;91.09;103166.66;5098964;27;46703;-85
2022/03/19 00:41:50;;;;;;;;;6.25;5.00;;;;;8.83;90.97;103165.81;5100015;27;44853;-84
2022/03/19 00:44:15;;;;;;;;;6.75;6.75;;;;;8.80;90.53;103169.44;5101746;27;44806;-86
2022/03/19 00:46:40;;;;;;;;;3.75;3.75;;;;;8.75;90.79;103164.22;5102813;27;45476;-84
2022/03/19 00:49:06;;;;;;;;;4.00;4.00;;;;;8.75;92.13;103173.91;5101455;27;46562;-84
2022/03/19 00:51:32;;;;;;;;;5.00;5.00;;;;;8.71;91.63;103174.91;5104640;27;44819;-85
2022/03/19 00:53:58;;;;;;;;;2.25;2.25;;;;;8.67;90.92;103165.28;5093929;27;45457;-85
2022/03/19 00:56:23;;;;;;;;;5.00;5.00;;;;;8.64;91.72;103171.50;5085461;27;45463;-85
2022/03/19 00:58:49;;;;;;;;;4.00;4.00;;;;;8.61;90.90;103157.47;5085230;27;46906;-84
2022/03/19 01:01:14;;;;;;;;;5.00;5.00;;;;;8.62;91.71;103156.53;5086074;27;44966;-84
2022/03/19 01:03:39;;;;;;;;;6.00;5.75;;;;;8.62;92.04;103159.19;5083740;27;44810;-84
2022/03/19 01:06:05;;;;;;;;;7.50;5.00;;;;;8.57;92.66;103159.28;5079582;27;44962;-84
2022/03/19 01:08:30;;;;;;;;;5.00;4.00;;;;;8.56;91.78;103161.94;5082730;27;45270;-85
2022/03/19 01:10:56;;;;;;;;;5.25;4.00;;;;;8.55;92.56;103154.91;5085306;27;45448;-85
2022/03/19 01:13:21;;;;;;;;;6.00;5.75;;;;;8.54;91.10;103154.03;5083195;27;44795;-86
2022/03/19 01:15:47;;;;;;;;;5.50;5.00;;;;;8.52;91.58;103155.84;5081408;27;45326;-85
2022/03/19 01:18:12;;;;;;;;;9.00;3.75;;;;;8.48;92.28;103155.03;5080525;27;45305;-84
2022/03/19 01:20:40;;;;;;;;;4.00;4.00;;;;;8.45;91.50;103141.84;5082908;27;45421;-84
2022/03/19 01:23:05;;;;;;;;;9.00;4.00;;;;;8.42;90.41;103144.56;5084357;27;44742;-84
2022/03/19 01:25:31;;;;;;;;;4.75;4.75;;;;;8.42;92.24;103147.22;5082661;27;44798;-85
2022/03/19 01:27:56;;;;;;;;;3.25;3.25;;;;;8.41;91.42;103142.81;5078111;27;46626;-84
2022/03/19 01:30:22;;;;;;;;;3.50;3.00;;;;;8.40;90.93;103141.06;5079300;27;45525;-84
2022/03/19 01:32:49;;;;;;;;;5.75;4.00;;;;;8.36;91.97;103143.75;5078372;27;45370;-84
2022/03/19 01:35:16;;;;;;;;;4.00;4.00;;;;;8.34;91.00;103148.22;5092181;27;44888;-83
2022/03/19 01:37:42;;;;;;;;;5.25;5.25;;;;;8.31;92.15;103137.66;5098773;27;45195;-85
2022/03/19 01:40:10;;;;;;;;;4.00;3.50;;;;;8.31;91.76;103142.97;5097876;27;44807;-84
2022/03/19 01:42:40;;;;;;;;;7.25;4.50;;;;;8.28;91.33;103135.97;5098176;27;44801;-83
2022/03/19 01:45:13;;;;;;;;;6.00;4.25;;;;;8.22;91.93;103133.44;5089527;27;44957;-83
2022/03/19 01:47:39;;;;;;;;;5.25;5.25;;;;;8.21;92.78;103136.97;5079654;27;45350;-82
2022/03/19 01:50:06;;;;;;;;;4.00;4.00;;;;;8.17;92.35;103130.88;5087375;27;44791;-83
2022/03/19 01:52:31;;;;;;;;;4.50;4.50;;;;;8.15;92.32;103132.66;5088297;27;45377;-84
2022/03/19 01:54:59;;;;;;;;;6.50;4.00;;;;;8.13;92.57;103123.03;5061058;28;44714;-84
2022/03/19 01:57:28;;;;;;;;;7.00;3.25;;;;;8.10;92.11;103125.72;5058176;28;45866;-83
2022/03/19 01:59:57;;;;;;;;;3.75;3.00;;;;;8.09;92.98;103134.56;5059953;28;45187;-85
2022/03/19 02:02:25;;;;;;;;;5.25;5.25;;;;;8.04;93.46;103118.75;5061064;28;45310;-84
2022/03/19 02:04:52;;;;;;;;;6.00;4.75;;;;;8.03;91.83;103124.97;5063291;28;45407;-84
2022/03/19 02:07:17;;;;;;;;;5.25;4.00;;;;;8.02;93.17;103117.91;5062074;28;45164;-82
2022/03/19 02:09:42;;;;;;;;;5.00;5.00;;;;;7.99;93.37;103124.13;5057814;27;45467;-84
2022/03/19 02:12:09;;;;;;;;;5.00;5.00;;;;;7.95;94.50;103122.44;5056349;28;45380;-84
2022/03/19 02:14:39;;;;;;;;;6.50;4.00;;;;;7.91;94.20;103118.09;5057628;28;44828;-84
2022/03/19 02:17:06;;;;;;;;;3.50;3.50;;;;;7.88;94.45;103119.91;5056591;28;47370;-83
2022/03/19 02:19:32;;;;;;;;;4.50;4.50;;;;;7.83;95.67;103120.03;5061171;28;45493;-84
2022/03/19 02:21:58;;;;;;;;;2.00;2.00;;;;;7.78;94.68;103115.69;5064269;28;44762;-83
2022/03/19 02:27:08;;;;;;;;;5.00;5.00;;;;;7.75;96.11;103113.09;5061089;28;45480;-84
2022/03/19 02:29:34;;;;;;;;;4.75;4.75;;;;;7.75;96.77;103105.16;5064564;28;44709;-84
2022/03/19 02:32:03;;;;;;;;;8.00;6.00;;;;;7.73;96.44;103099.88;5063216;28;44916;-83
2022/03/19 02:34:29;;;;;;;;;5.00;5.00;;;;;7.73;97.01;103099.88;5062019;28;45193;-84
2022/03/19 02:36:54;;;;;;;;;6.75;5.50;;;;;7.70;97.51;103092.88;5063939;28;45339;-82
2022/03/19 02:39:28;;;;;;;;;8.50;5.75;;;;;7.71;96.92;103093.75;5064767;28;45387;-83
2022/03/19 02:41:55;;;;;;;;;5.50;4.25;;;;;7.65;97.11;103096.50;5061991;28;44727;-85
2022/03/19 02:44:22;;;;;;;;;7.00;5.25;;;;;7.66;96.58;103092.97;5061096;28;44713;-83
2022/03/19 02:46:50;;;;;;;;;9.50;7.00;;;;;7.65;98.21;103094.75;5058958;28;45523;-83
2022/03/19 02:49:17;;;;;;;;;12.00;10.25;;;;;7.62;100.00;103091.25;5058525;28;45178;-84
2022/03/19 02:51:45;;;;;;;;;4.00;4.00;;;;;7.58;98.66;103082.50;5059811;28;45339;-83
2022/03/19 02:54:13;;;;;;;;;7.50;7.50;;;;;7.58;99.84;103079.84;5078765;27;45158;-84
2022/03/19 02:56:40;;;;;;;;;6.75;6.25;;;;;7.57;99.49;103074.59;5080305;27;46770;-83
2022/03/19 02:59:21;;;;;;;;;7.25;6.75;;;;;7.55;100.00;103069.34;5080240;28;45484;-85
2022/03/19 03:01:56;;;;;;;;;7.00;3.00;;;;;7.55;100.00;103057.91;5084749;27;45454;-85
2022/03/19 03:04:22;;;;;;;;;9.75;7.50;;;;;7.50;100.00;103060.63;5083292;27;44881;-85
2022/03/19 03:06:50;;;;;;;;;8.25;5.00;;;;;7.50;100.00;103043.88;5079454;27;45234;-83
2022/03/19 03:09:19;;;;;;;;;14.00;8.50;;;;;7.50;100.00;103062.38;5077473;27;45295;-84
2022/03/19 03:11:45;;;;;;;;;7.75;7.75;;;;;7.50;100.00;103059.75;5076336;27;44773;-85
2022/03/19 03:14:19;;;;;;;;;7.50;7.50;;;;;7.48;100.00;103052.69;5078110;28;44895;-83
2022/03/19 03:16:44;;;;;;;;;10.25;8.50;;;;;7.46;100.00;103056.28;5079068;27;44977;-84
2022/03/19 03:19:11;;;;;;;;;10.00;6.50;;;;;7.44;100.00;103061.56;5079114;27;45307;-83
2022/03/19 03:21:39;;;;;;;;;10.75;8.50;;;;;7.44;100.00;103058.03;5078133;28;45184;-84
2022/03/19 03:24:05;;;;;;;;;11.00;7.25;;;;;7.42;100.00;103059.84;5081752;27;44745;-84
2022/03/19 03:26:31;;;;;;;;;6.50;5.50;;;;;7.38;100.00;103058.16;5084669;27;45439;-85
2022/03/19 03:28:57;;;;;;;;;12.00;11.00;;;;;7.36;100.00;103065.25;5078549;27;45319;-84
2022/03/19 03:31:24;;;;;;;;;13.00;11.00;;;;;7.31;100.00;103062.69;5077610;28;44769;-84
2022/03/19 03:33:49;;;;;;;;;11.75;10.75;;;;;7.25;100.00;103049.53;5076592;27;44859;-84
2022/03/19 03:36:16;;;;;;;;;6.25;1.50;;;;;7.26;100.00;103050.44;5076276;28;47610;-84
2022/03/19 03:38:42;;;;;;;;;11.50;9.75;;;;;7.24;100.00;103045.16;5078137;27;45410;-84
2022/03/19 03:41:08;;;;;;;;;11.50;7.00;;;;;7.24;100.00;103036.34;5078770;27;45429;-84
2022/03/19 03:43:34;;;;;;;;;13.00;10.50;;;;;7.23;100.00;103048.69;5076972;27;45188;-84
2022/03/19 03:46:00;;;;;;;;;9.75;9.75;;;;;7.21;100.00;103034.66;5075111;27;47102;-85
2022/03/19 03:48:26;;;;;;;;;14.33;12.67;;;;;7.21;100.00;103024.94;5075737;27;45252;-83
2022/03/19 03:50:56;;;;;;;;;12.00;11.00;;;;;7.21;100.00;103035.50;5078772;27;44728;-85
2022/03/19 03:53:25;;;;;;;;;15.00;13.00;;;;;7.22;100.00;103036.38;5078043;27;45423;-85
2022/03/19 03:55:51;;;;;;;;;11.33;10.00;;;;;7.22;100.00;103036.38;5070633;28;45324;-83
2022/03/19 03:58:16;;;;;;;;;9.25;9.25;;;;;7.21;100.00;103046.09;5072241;28;44792;-82
2022/03/19 04:00:42;;;;;;;;;13.00;9.00;;;;;7.19;100.00;103050.50;5065584;27;44801;-82
2022/03/19 04:03:07;;;;;;;;;14.00;13.00;;;;;7.18;100.00;103043.47;5067246;28;44746;-83
2022/03/19 04:05:33;;;;;;;;;14.25;13.25;;;;;7.18;100.00;103042.63;5065219;28;45131;-83
2022/03/19 04:08:03;;;;;;;;;10.00;10.00;;;;;7.14;100.00;103038.25;5064321;28;45386;-83
2022/03/19 04:10:30;;;;;;;;;13.50;12.50;;;;;7.14;100.00;103036.50;5065107;28;44847;-83
2022/03/19 04:12:55;;;;;;;;;18.67;16.67;;;;;7.13;100.00;103039.16;5064554;28;45350;-83
2022/03/19 04:15:21;;;;;;;;;14.00;13.00;;;;;7.14;100.00;103043.56;5063989;28;45352;-84
2022/03/19 04:17:46;;;;;;;;;14.33;12.33;;;;;7.14;100.00;103035.63;5060904;28;44754;-83
2022/03/19 04:20:13;;;;;;;;;21.00;16.33;;;;;7.14;100.00;103036.50;5061875;28;45287;-83
2022/03/19 04:22:43;;;;;;;;;18.00;17.33;;;;;7.11;100.00;103023.34;5060387;28;44769;-84
2022/03/19 04:25:15;;;;;;;;;18.33;16.00;;;;;7.10;100.00;103036.56;5060711;28;45494;-84
2022/03/19 04:27:43;;;;;;;;;13.67;13.33;;;;;7.09;100.00;103024.25;5064176;27;45378;-84
2022/03/19 04:30:12;;;;;;;;;16.33;15.00;;;;;7.08;100.00;103039.25;5066800;28;45398;-83
2022/03/19 04:32:41;;;;;;;;;14.33;11.33;;;;;7.08;100.00;103041.88;5067567;28;45292;-84
2022/03/19 04:36:30;;;;;;;;;25.67;21.00;;;;;7.07;100.00;103034.84;5057717;28;47249;-84
2022/03/19 04:37:54;;;;;;;;;20.00;16.67;;;;;7.06;100.00;103026.94;5058970;28;44792;-85
2022/03/19 04:40:21;;;;;;;;;22.00;15.00;;;;;7.05;100.00;103038.41;5058173;28;45291;-85
2022/03/19 04:42:46;;;;;;;;;18.33;18.00;;;;;7.04;100.00;103029.59;5060252;28;44844;-84
2022/03/19 04:45:11;;;;;;;;;20.33;19.33;;;;;7.03;100.00;103021.72;5058178;28;45427;-84
2022/03/19 04:47:37;;;;;;;;;23.00;21.67;;;;;7.02;100.00;103028.78;5058496;28;45277;-82
2022/03/19 04:50:04;;;;;;;;;27.00;23.00;;;;;6.99;100.00;103031.44;5058822;28;45415;-83
2022/03/19 04:52:31;;;;;;;;;28.33;23.67;;;;;7.00;100.00;103019.09;5059633;27;45478;-83
2022/03/19 04:55:00;;;;;;;;;20.67;19.00;;;;;6.98;100.00;103032.34;5103929;27;45028;-84
2022/03/19 04:57:26;;;;;;;;;22.67;20.67;;;;;6.97;100.00;103035.91;5106338;27;44807;-82
2022/03/19 04:59:51;;;;;;;;;23.00;21.00;;;;;6.94;100.00;103028.00;5104827;27;44870;-82
2022/03/19 05:02:17;;;;;;;;;25.00;21.33;;;;;6.91;100.00;103030.69;5112840;27;44803;-81
2022/03/19 05:04:42;;;;;;;;;23.67;21.00;;;;;6.88;100.00;103030.75;5107654;27;45348;-82
2022/03/19 05:07:07;;;;;;;;;35.33;34.33;;;;;6.86;100.00;103024.59;5104395;27;44781;-82
2022/03/19 05:12:35;;;;;;;;;32.67;28.67;;;;;6.84;100.00;103029.03;5100272;27;44722;-82
2022/03/19 05:15:01;;;;;;;;;31.00;27.67;;;;;6.82;100.00;103026.44;5098973;27;45071;-83
2022/03/19 05:17:26;;;;;;;;;28.33;26.67;;;;;6.80;100.00;103027.31;5097293;27;44901;-82
2022/03/19 05:19:52;;;;;;;;;31.00;22.67;;;;;6.79;100.00;103022.94;5098925;27;44832;-82
2022/03/19 05:22:18;;;;;;;;;23.00;17.67;;;;;6.77;100.00;103030.00;5098730;27;45305;-83
2022/03/19 05:24:44;;;;;;;;;47.67;34.00;;;;;6.78;100.00;103034.41;5098099;27;45319;-83
2022/03/19 05:27:11;;;;;;;;;22.67;21.33;;;;;6.75;100.00;103022.13;5098369;27;45400;-83
2022/03/19 05:29:36;;;;;;;;;25.00;23.00;;;;;6.75;100.00;103032.69;5103189;27;45370;-83
2022/03/19 05:32:02;;;;;;;;;31.00;23.67;;;;;6.71;100.00;103030.97;5103677;27;44817;-82
2022/03/19 05:34:31;;;;;;;;;28.00;25.00;;;;;6.69;100.00;103025.72;5107430;27;45161;-83
2022/03/19 05:37:03;;;;;;;;;37.33;29.00;;;;;6.66;100.00;103027.53;5107149;27;44840;-82
2022/03/19 05:39:31;;;;;;;;;39.33;28.00;;;;;6.63;100.00;103032.88;5100719;27;44729;-82
2022/03/19 05:41:57;;;;;;;;;24.33;17.00;;;;;6.60;100.00;103033.75;5101769;27;45247;-84
2022/03/19 05:44:22;;;;;;;;;31.00;31.00;;;;;6.59;100.00;103028.50;5100692;27;45403;-82
2022/03/19 05:46:48;;;;;;;;;37.00;31.33;;;;;6.57;100.00;103033.78;5100436;27;44844;-83
2022/03/19 05:49:14;;;;;;;;;32.00;32.00;;;;;6.56;100.00;103023.25;5103938;27;45301;-82
2022/03/19 05:51:40;;;;;;;;;33.33;31.33;;;;;6.57;100.00;103032.91;5101677;27;45303;-83
2022/03/19 05:54:06;;;;;;;;;33.33;25.00;;;;;6.55;100.00;103032.09;5086727;27;45411;-84
2022/03/19 05:56:32;;;;;;;;;33.33;26.33;;;;;6.53;100.00;103023.31;5080727;27;44800;-82
2022/03/19 05:58:58;;;;;;;;;41.67;29.00;;;;;6.51;100.00;103028.59;5083440;27;45342;-82
2022/03/19 06:01:28;;;;;;;;;31.33;31.33;;;;;6.49;100.00;103033.03;5085225;27;45302;-82
2022/03/19 06:03:58;;;;;;;;;44.33;36.00;;;;;6.47;100.00;103036.56;5083739;27;46192;-84
2022/03/19 06:06:24;;;;;;;;;44.00;36.00;;;;;6.46;100.00;103022.50;5082110;27;45335;-83
2022/03/19 06:08:50;;;;;;;;;37.00;34.00;;;;;6.48;100.00;103020.75;5082395;27;45310;-82
2022/03/19 06:11:15;;;;;;;;;34.33;29.67;;;;;6.49;100.00;103022.47;5085173;27;44909;-83
2022/03/19 06:13:41;;;;;;;;;43.33;33.67;;;;;6.51;100.00;103020.69;5083199;27;45552;-83
2022/03/19 06:16:06;;;;;;;;;42.33;30.67;;;;;6.54;100.00;103027.69;5076638;28;44847;-82
2022/03/19 06:18:31;;;;;;;;;37.67;33.00;;;;;6.55;100.00;103029.44;5077326;27;45125;-83
2022/03/19 06:20:57;;;;;;;;;46.00;34.67;;;;;6.58;100.00;103026.78;5075782;28;45273;-82
2022/03/19 06:23:24;;;;;;;;;37.33;32.00;;;;;6.59;100.00;103033.78;5079353;27;45311;-84
2022/03/19 06:25:49;;;;;;;;;36.67;29.00;;;;;6.63;100.00;103031.09;5077260;27;45496;-82
2022/03/19 06:28:16;;;;;;;;;50.00;39.00;;;;;6.67;100.00;103038.09;5077368;27;45523;-82
2022/03/19 06:30:41;;;;;;;;;44.00;36.33;;;;;6.73;100.00;103038.91;5077543;27;44843;-83
2022/03/19 06:33:07;;;;;;;;;35.33;31.33;;;;;6.75;100.00;103053.81;5077070;27;45611;-83
2022/03/19 06:38:18;;;;;;;;;49.00;37.33;;;;;6.84;100.00;103026.41;5077649;28;44741;-82
2022/03/19 06:40:43;;;;;;;;;33.67;29.00;;;;;6.85;100.00;103039.56;5077136;28;44953;-83
2022/03/19 06:43:09;;;;;;;;;49.33;40.67;;;;;6.90;100.00;103043.03;5080890;27;45244;-82
2022/03/19 06:45:34;;;;;;;;;41.33;36.67;;;;;6.92;100.00;103041.25;5087362;27;44633;-84
2022/03/19 06:47:59;;;;;;;;;52.67;38.00;;;;;6.99;100.00;103038.50;5082983;27;44885;-83
2022/03/19 06:50:25;;;;;;;;;45.00;39.00;;;;;7.04;100.00;103044.59;5081516;27;44775;-82
2022/03/19 06:52:50;;;;;;;;;38.00;29.33;;;;;7.06;100.00;103040.16;5082635;27;44975;-82
2022/03/19 06:55:16;;;;;;;;;53.33;41.33;;;;;7.06;100.00;103042.78;5081958;27;44800;-82
2022/03/19 06:57:41;;;;;;;;;47.33;38.33;;;;;7.13;100.00;103040.03;5082330;27;45229;-83
2022/03/19 07:00:08;;;;;;;;;54.33;43.00;;;;;7.15;100.00;103043.53;5082806;27;44916;-89
2022/03/19 07:02:48;;;;;;;;;43.00;33.33;;;;;7.18;100.00;103043.47;5079933;27;47190;-85
2022/03/19 07:05:24;;;;;;;;;46.00;37.00;;;;;7.28;100.00;103030.13;5082269;28;44791;-87
2022/03/19 07:07:51;;;;;;;;;47.33;37.67;;;;;7.33;100.00;103033.56;5086425;27;44736;-88
2022/03/19 07:10:19;;;;;;;;;32.00;21.00;;;;;7.39;100.00;103031.69;5085596;27;44788;-87
2022/03/19 07:12:49;;;;;;;;;58.00;40.67;;;;;7.41;100.00;103035.19;5083550;27;45377;-87
2022/03/19 07:15:16;;;;;;;;;60.00;48.33;;;;;7.50;100.00;103035.94;5084143;27;44630;-86
2022/03/19 07:17:43;;;;;;;;;62.67;47.33;;;;;7.62;100.00;103038.34;5086581;27;44722;-87
2022/03/19 07:20:14;;;;;;;;;59.00;46.00;;;;;7.69;100.00;103040.88;5084966;27;45257;-86
2022/03/19 07:23:06;;;;;;;;;55.67;42.67;;;;;7.80;100.00;103043.31;5093473;28;46304;-87
2022/03/19 07:25:36;;;;;;;;;57.67;45.33;;;;;7.89;100.00;103032.56;5088058;27;45182;-86
2022/03/19 07:28:07;;;;;;;;;27.67;24.67;;;;;7.98;100.00;103032.41;5083067;27;44783;-87
2022/03/19 07:30:33;;;;;;;;;52.00;38.00;;;;;8.03;100.00;103029.66;5083065;27;45417;-86
2022/03/19 07:33:00;;;;;;;;;41.00;35.67;;;;;8.08;100.00;103027.81;5082383;28;47649;-88
2022/03/19 07:35:26;;;;;;;;;54.33;43.00;;;;;8.19;100.00;103036.41;5079932;28;45334;-87
2022/03/19 07:37:53;;;;;;;;;57.33;45.00;;;;;8.30;100.00;103036.16;5080724;27;44745;-86
2022/03/19 07:43:07;;;;;;;;;58.67;44.67;;;;;8.41;100.00;103031.56;5079164;27;44924;-86
2022/03/19 07:45:35;;;;;;;;;62.00;48.00;;;;;8.46;100.00;103029.69;5085072;27;45161;-86
2022/03/19 07:48:01;;;;;;;;;58.67;46.33;;;;;8.48;100.00;103027.88;5087836;27;45509;-86
2022/03/19 07:50:26;;;;;;;;;34.00;18.00;;;;;8.53;100.00;103026.91;5087468;28;44943;-87
2022/03/19 07:52:52;;;;;;;;;62.00;49.00;;;;;8.54;100.00;103023.34;5078711;27;46868;-86
2022/03/19 07:55:19;;;;;;;;;20.00;11.67;;;;;8.58;100.00;103017.97;5084351;27;45358;-86
2022/03/19 07:57:44;;;;;;;;;53.67;36.33;;;;;8.63;100.00;103017.84;5084578;27;44819;-87
2022/03/19 08:00:12;;;;;;;;;58.00;47.00;;;;;8.63;100.00;103034.63;5084892;27;45485;-87
2022/03/19 08:02:38;;;;;;;;;68.67;52.00;;;;;8.72;100.00;103030.91;5080702;27;45326;-87
2022/03/19 08:05:04;;;;;;;;;60.00;45.00;;;;;8.75;100.00;103015.81;5082200;27;45553;-87
2022/03/19 08:07:30;;;;;;;;;60.00;43.33;;;;;8.78;100.00;103020.16;5085196;27;44837;-85
2022/03/19 08:09:56;;;;;;;;;60.33;45.33;;;;;8.87;100.00;103019.09;5084513;27;44962;-87
2022/03/19 08:12:22;;;;;;;;;65.33;50.33;;;;;8.96;100.00;103019.75;5084493;27;45161;-87
2022/03/19 08:14:49;;;;;;;;;59.67;46.67;;;;;9.07;100.00;103015.97;5085291;27;45328;-86
2022/03/19 08:17:15;;;;;;;;;68.33;50.00;;;;;9.19;100.00;103019.19;5085320;28;45209;-87
2022/03/19 08:19:42;;;;;;;;;65.67;51.33;;;;;9.31;100.00;103018.00;5071621;27;45366;-87
2022/03/19 08:22:08;;;;;;;;;49.33;36.33;;;;;9.36;100.00;103007.28;5067853;28;46913;-87
2022/03/19 08:24:40;;;;;;;;;61.67;48.00;;;;;9.37;100.00;103019.63;5090470;27;44705;-86
2022/03/19 08:27:05;;;;;;;;;64.33;51.00;;;;;9.50;100.00;103011.31;5089505;27;44796;-87
2022/03/19 08:29:30;;;;;;;;;68.67;51.33;;;;;9.65;100.00;103018.00;5075551;27;45493;-88
2022/03/19 08:31:56;;;;;;;;;62.00;47.33;;;;;9.73;100.00;103007.19;5063583;28;45480;-88
2022/03/19 08:34:23;;;;;;;;;64.00;50.67;;;;;9.84;100.00;103004.25;5072148;28;45312;-88
2022/03/19 08:36:49;;;;;;;;;51.67;42.00;;;;;9.95;100.00;103000.38;5066267;28;44726;-89
2022/03/19 08:41:59;;;;;;;;;58.67;48.33;;;;;10.07;100.00;102990.34;5068213;28;45025;-88
2022/03/19 08:44:25;;;;;;;;;64.33;47.33;;;;;10.15;100.00;102986.53;5067999;28;45201;-86
2022/03/19 08:46:51;;;;;;;;;59.00;49.00;;;;;10.24;100.00;102996.91;5061667;28;44875;-86
2022/03/19 08:49:16;;;;;;;;;63.67;49.67;;;;;10.38;100.00;102999.16;5059056;28;45482;-83
2022/03/19 08:51:42;;;;;;;;;59.33;47.00;;;;;10.50;100.00;102993.50;5068476;27;45403;-83
2022/03/19 08:54:14;;;;;;;;;67.67;50.00;;;;;10.67;100.00;102998.28;5071286;27;44841;-82
2022/03/19 08:56:40;;;;;;;;;64.33;52.00;;;;;10.81;100.00;102990.75;5077217;27;44743;-84
2022/03/19 08:59:06;;;;;;;;;67.00;51.67;;;;;10.96;100.00;102999.16;5079186;27;45142;-84
2022/03/19 09:01:33;;;;;;;;;65.33;51.67;;;;;11.09;100.00;102995.19;5070176;27;45415;-84
2022/03/19 09:04:00;;;;;;;;;68.00;53.67;;;;;11.19;100.00;102991.28;5074331;27;44788;-85
2022/03/19 09:06:26;;;;;;;;;66.00;50.67;;;;;11.33;100.00;102996.16;5060259;27;45460;-84
2022/03/19 09:08:51;;;;;;;;;67.33;51.67;;;;;11.40;100.00;102983.50;5062748;28;45284;-88
2022/03/19 09:11:18;;;;;;;;;62.00;50.67;;;;;11.41;100.00;102974.59;5070176;28;45343;-85
2022/03/19 09:13:48;;;;;;;;;65.33;51.67;;;;;11.44;100.00;102995.78;5071036;28;44720;-85
2022/03/19 09:16:14;;;;;;;;;66.00;52.33;;;;;11.54;100.00;102994.53;5073867;27;44741;-83
2022/03/19 09:18:40;;;;;;;;;64.00;48.33;;;;;11.62;100.00;102986.31;5081570;27;44809;-85
2022/03/19 09:21:05;;;;;;;;;68.00;53.33;;;;;11.67;100.00;102987.88;5074427;27;45644;-83
2022/03/19 09:23:31;;;;;;;;;61.67;48.00;;;;;11.75;100.00;102991.16;5062786;27;45339;-85
2022/03/19 09:25:56;;;;;;;;;64.33;49.00;;;;;11.78;100.00;102963.53;5072606;27;45232;-84
2022/03/19 09:28:22;;;;;;;;;65.33;51.67;;;;;11.74;100.00;102965.41;5069337;27;44835;-84
2022/03/19 09:30:47;;;;;;;;;57.67;47.00;;;;;11.84;100.00;102965.97;5079329;27;45059;-83
2022/03/19 09:33:12;;;;;;;;;64.00;52.00;;;;;11.91;100.00;102967.50;5083006;27;44785;-85
2022/03/19 09:35:38;;;;;;;;;65.33;51.67;;;;;11.97;100.00;102971.75;5067332;28;45586;-85
2022/03/19 09:38:04;;;;;;;;;66.00;52.00;;;;;12.06;100.00;102972.25;5085122;27;45269;-84
2022/03/19 09:40:29;;;;;;;;;65.00;52.33;;;;;12.16;100.00;102962.13;5067749;28;46494;-84
2022/03/19 09:42:57;;;;;;;;;66.33;50.67;;;;;12.32;100.00;102973.06;5071474;28;45644;-86
2022/03/19 09:45:24;;;;;;;;;67.00;52.67;;;;;12.44;100.00;102969.06;5079504;27;44847;-84
2022/03/19 09:47:51;;;;;;;;;66.33;50.33;;;;;12.52;100.00;102964.28;5085410;27;45299;-85
2022/03/19 09:50:17;;;;;;;;;63.67;50.00;;;;;12.67;100.00;102965.47;5066613;27;46842;-84
2022/03/19 09:52:43;;;;;;;;;64.00;52.00;;;;;12.66;100.00;102969.94;5066132;27;44838;-82
2022/03/19 09:55:15;;;;;;;;;61.33;50.00;;;;;12.74;100.00;102964.31;5061834;27;45426;-84
2022/03/19 09:57:41;;;;;;;;;52.00;41.67;;;;;12.78;100.00;102964.13;5082652;27;44905;-85
2022/03/19 10:00:07;;;;;;;;;62.00;48.00;;;;;12.83;100.00;102955.94;5091815;27;45307;-84
2022/03/19 10:02:32;;;;;;;;;63.33;51.00;;;;;12.93;100.00;102959.09;5095188;27;44751;-86
2022/03/19 10:08:35;;;;;;;;;54.67;45.00;;;;;12.94;100.00;102945.69;5092644;27;44724;-85
2022/03/19 10:10:34;;;;;;;;;60.00;46.33;;;;;13.13;98.07;102946.66;5079519;28;44867;-85
2022/03/19 10:12:59;;;;;;;;;68.00;50.00;;;;;13.22;98.75;102945.44;5079510;27;44779;-84
2022/03/19 10:15:27;;;;;;;;;65.00;50.67;;;;;13.35;97.32;102943.13;5085058;27;45295;-85
2022/03/19 10:17:59;;;;;;;;;57.00;46.00;;;;;13.47;97.33;102939.03;5092390;27;45671;-84
2022/03/19 10:20:25;;;;;;;;;68.00;57.00;;;;;13.51;96.31;102938.84;5093360;27;44988;-84
2022/03/19 10:22:50;;;;;;;;;60.67;48.67;;;;;13.55;96.31;102947.59;5091074;27;44769;-84
2022/03/19 10:25:18;;;;;;;;;67.00;53.00;;;;;13.50;95.64;102930.91;5085724;27;44832;-84
2022/03/19 10:27:45;;;;;;;;;64.00;48.33;;;;;13.51;95.61;102932.63;5086117;27;45233;-85
2022/03/19 10:30:21;;;;;;;;;66.33;53.33;;;;;13.57;95.37;102930.56;5085533;27;46332;-85
2022/03/19 10:32:51;;;;;;;;;61.67;46.67;;;;;13.68;95.53;102932.72;5071325;27;44853;-85
2022/03/19 10:35:31;;;;;;;;;63.67;49.33;;;;;13.60;94.24;102927.75;5062410;28;45245;-86
2022/03/19 10:38:00;;;;;;;;;61.67;48.33;;;;;13.63;93.49;102929.41;5062347;28;45517;-85
2022/03/19 10:40:55;;;;;;;;;65.33;52.67;;;;;13.57;93.44;102927.00;5057549;28;46661;-85
2022/03/19 10:43:22;;;;;;;;;65.00;49.67;;;;;13.62;94.17;102917.00;5050145;28;44875;-86
2022/03/19 10:45:54;;;;;;;;;59.00;48.33;;;;;13.55;91.62;102923.56;5058683;28;44833;-85
2022/03/19 10:48:21;;;;;;;;;62.00;49.67;;;;;13.48;91.24;102909.59;5060328;28;44843;-86
2022/03/19 10:50:48;;;;;;;;;61.67;48.67;;;;;13.67;91.95;102920.31;5057422;28;46405;-84
2022/03/19 10:53:14;;;;;;;;;64.33;50.00;;;;;13.91;90.88;102918.34;5066883;27;45325;-85
2022/03/19 10:55:40;;;;;;;;;62.67;49.67;;;;;14.10;91.00;102913.88;5078742;28;45485;-86
2022/03/19 10:58:08;;;;;;;;;63.33;51.67;;;;;14.17;88.66;102916.25;5081238;27;45552;-84
2022/03/19 11:00:35;;;;;;;;;69.00;54.00;;;;;14.27;88.55;102915.75;5079616;27;46904;-85
2022/03/19 11:03:06;;;;;;;;;56.00;47.33;;;;;14.29;88.43;102910.34;5081774;27;44812;-84
2022/03/19 11:05:35;;;;;;;;;67.33;52.33;;;;;14.25;86.77;102912.28;5085769;27;45600;-86
2022/03/19 11:08:02;;;;;;;;;55.33;42.67;;;;;14.22;86.07;102895.53;5080748;27;45501;-84
2022/03/19 11:10:28;;;;;;;;;67.33;50.67;;;;;14.33;86.75;102907.44;5079778;27;45339;-84
2022/03/19 11:12:57;;;;;;;;;60.33;48.67;;;;;14.49;86.43;102902.25;5080625;27;45270;-84
2022/03/19 11:15:25;;;;;;;;;61.00;49.33;;;;;14.46;83.75;102893.50;5079991;27;44772;-85
2022/03/19 11:17:53;;;;;;;;;69.33;56.33;;;;;14.43;83.60;102899.84;5080415;27;45388;-85
2022/03/19 11:20:19;;;;;;;;;60.67;47.67;;;;;14.46;84.12;102894.34;5078746;27;45234;-84
2022/03/19 11:22:50;;;;;;;;;62.00;49.33;;;;;14.57;84.04;102901.88;5083374;27;44759;-84
2022/03/19 11:25:27;;;;;;;;;49.33;36.67;;;;;14.63;84.33;102882.84;5083078;28;44768;-85
2022/03/19 11:28:12;;;;;;;;;67.67;48.33;;;;;14.67;83.54;102888.91;5079943;27;45360;-84
2022/03/19 11:30:41;;;;;;;;;59.67;39.33;;;;;14.71;82.01;102878.00;5077595;27;46892;-85